Arun — FGD9919 — position and weather

sailwx.info

Track history (hours):
 
Tides and Currents Weather Stations Pressure Air Temp Water Temp Dewpoint Dewpoint Depression Visibility Wind Speed Wind Dir Waves Ship Positions

Arun

Last reported at 2017-Sep-16 11:46 UTC. Time now 2017-Sep-24 05:15 UTC.
Position N 47°51' W 003°57'.

Length 35 m; draft 1.7 m.

Type: Passenger vessel. MMSI: 227612860.

Date/timePositionNaut miles runAvg speedWind from/ knotsBaromVisibWave heightAir tempDewpointWater temp
2017-Sep-16 11:46N 47°51' W 003°57'2415.2
2017-Sep-16 10:11N 47°53' W 004°32'318.1
2017-Sep-16 10:00N 47°55' W 004°35'917.5
2017-Sep-16 09:30N 48°02' W 004°45'815.4
2017-Sep-16 09:01N 48°09' W 004°43'917.6
2017-Sep-16 08:31N 48°17' W 004°38'815.3
2017-Sep-16 08:00N 48°23' W 004°30'0 0.0
2017-Sep-15 08:02N 48°23' W 004°30'0 0.0
2017-Sep-15 07:59N 48°23' W 004°30'1 1.8
2017-Sep-15 07:28N 48°22' W 004°31'0 0.0
2017-Sep-15 06:58N 48°22' W 004°31'0 0.0
2017-Sep-15 06:30N 48°22' W 004°31'4 9.2
2017-Sep-15 06:01N 48°18' W 004°31'510.0
2017-Sep-15 05:30N 48°23' W 004°30'0 0.5
2017-Sep-15 04:58N 48°23' W 004°30'0 0.0
2017-Sep-14 15:04N 48°23' W 004°30'0 0.1
2017-Sep-14 15:00N 48°23' W 004°30'510.4
2017-Sep-14 14:30N 48°18' W 004°31'4 8.3
2017-Sep-14 14:00N 48°22' W 004°29'1 0.5
2017-Sep-14 11:49N 48°23' W 004°30'2 6.1
2017-Sep-14 11:30N 48°21' W 004°29'3 6.7
2017-Sep-14 11:00N 48°18' W 004°27'3 5.1
2017-Sep-14 10:31N 48°20' W 004°28'3 0.7
2017-Sep-14 06:21N 48°23' W 004°30'410.9
2017-Sep-14 06:01N 48°19' W 004°29'1 1.8
2017-Sep-14 05:30N 48°20' W 004°29'3 5.2
2017-Sep-14 04:58N 48°23' W 004°30'0 0.0
2017-Sep-13 15:04N 48°23' W 004°30'0 0.2
2017-Sep-13 14:59N 48°23' W 004°30'510.8
2017-Sep-13 14:30N 48°18' W 004°31'4 8.8
2017-Sep-13 14:00N 48°22' W 004°29'1 0.4
2017-Sep-13 11:43N 48°23' W 004°30'2 8.2
2017-Sep-13 11:31N 48°21' W 004°29'4 7.0
2017-Sep-13 11:00N 48°18' W 004°27'2 4.3
2017-Sep-13 10:30N 48°20' W 004°28'3 5.8
2017-Sep-13 09:58N 48°23' W 004°30'0 0.0
2017-Sep-13 07:14N 48°23' W 004°30'0 0.7
2017-Sep-13 07:01N 48°23' W 004°30'0 0.0
2017-Sep-13 06:30N 48°23' W 004°30'3 6.3
2017-Sep-13 06:01N 48°20' W 004°29'0 0.1
2017-Sep-13 05:31N 48°20' W 004°29'3 5.9
2017-Sep-13 04:58N 48°23' W 004°30'0 0.0
2017-Sep-12 15:04N 48°23' W 004°30'0 0.2
2017-Sep-12 15:00N 48°23' W 004°30'510.6
2017-Sep-12 14:30N 48°18' W 004°31'4 9.0
2017-Sep-12 14:00N 48°22' W 004°29'1 0.4
2017-Sep-12 11:44N 48°23' W 004°30'2 7.9
2017-Sep-12 11:30N 48°21' W 004°29'3 7.0
2017-Sep-12 11:01N 48°18' W 004°27'2 3.8
2017-Sep-12 10:31N 48°20' W 004°28'3 6.3
2017-Sep-12 09:58N 48°23' W 004°30'0 0.0
2017-Sep-12 06:33N 48°23' W 004°30'0 0.1
2017-Sep-12 06:30N 48°23' W 004°30'3 6.9
2017-Sep-12 06:01N 48°20' W 004°29'0 0.9
2017-Sep-12 05:30N 48°20' W 004°29'3 5.4
2017-Sep-12 04:58N 48°23' W 004°30'0 0.0
2017-Sep-11 15:04N 48°23' W 004°30'0 0.4
2017-Sep-11 15:00N 48°23' W 004°30'5 9.7
2017-Sep-11 14:28N 48°18' W 004°31'4 8.7
2017-Sep-11 14:00N 48°22' W 004°29'1 0.6
2017-Sep-11 11:43N 48°23' W 004°30'2 7.6
2017-Sep-11 11:30N 48°21' W 004°29'4 7.2
2017-Sep-11 11:00N 48°18' W 004°27'2 4.0
2017-Sep-11 10:30N 48°20' W 004°28'3 6.3
2017-Sep-11 10:00N 48°23' W 004°30'0 0.0
2017-Sep-11 06:18N 48°23' W 004°30'311.2
2017-Sep-11 06:00N 48°20' W 004°29'0 0.7
2017-Sep-11 05:30N 48°20' W 004°29'3 5.7
2017-Sep-11 04:58N 48°23' W 004°30'  
2017-Sep-08 15:05N 48°23' W 004°30'0 0.1
2017-Sep-08 15:00N 48°23' W 004°30'5 9.6
2017-Sep-08 14:28N 48°18' W 004°31'4 8.5
2017-Sep-08 14:01N 48°22' W 004°29'1 0.7
2017-Sep-08 11:46N 48°23' W 004°30'2 9.3
2017-Sep-08 11:30N 48°20' W 004°29'3 6.3
2017-Sep-08 11:00N 48°18' W 004°26'2 4.1
2017-Sep-08 10:30N 48°20' W 004°28'4 0.8
2017-Sep-08 06:18N 48°23' W 004°30'310.8
2017-Sep-08 06:01N 48°20' W 004°29'0 0.1
2017-Sep-08 05:30N 48°20' W 004°29'3 6.2
2017-Sep-08 05:00N 48°23' W 004°30'0 0.0
2017-Sep-07 15:23N 48°23' W 004°30'512.3
2017-Sep-07 15:00N 48°19' W 004°27'0 0.2
2017-Sep-07 14:30N 48°19' W 004°27'5 0.6
2017-Sep-07 06:29N 48°23' W 004°30'612.2
2017-Sep-07 06:00N 48°18' W 004°25'3 6.0
2017-Sep-07 05:30N 48°20' W 004°28'3 0.2
2017-Sep-06 15:24N 48°23' W 004°30'511.4
2017-Sep-06 15:00N 48°19' W 004°27'0 0.1
2017-Sep-06 14:30N 48°19' W 004°27'  
Track history (hours):
 
Tides and Currents Weather Stations Pressure Air Temp Water Temp Dewpoint Dewpoint Depression Visibility Wind Speed Wind Dir Waves Ship Positions

Arun

Last reported at 2017-Sep-16 11:46 UTC. Time now 2017-Sep-24 05:15 UTC.
Position N 47°51' W 003°57'.

Length 35 m; draft 1.7 m.

Type: Passenger vessel. MMSI: 227612860.

Date/timePositionNaut miles runAvg speedWind from/ knotsBaromVisibWave heightAir tempDewpointWater temp
2017-Sep-16 11:46N 47°51' W 003°57'2415.2
2017-Sep-16 10:11N 47°53' W 004°32'318.1
2017-Sep-16 10:00N 47°55' W 004°35'917.5
2017-Sep-16 09:30N 48°02' W 004°45'815.4
2017-Sep-16 09:01N 48°09' W 004°43'917.6
2017-Sep-16 08:31N 48°17' W 004°38'815.3
2017-Sep-16 08:00N 48°23' W 004°30'0 0.0
2017-Sep-15 08:02N 48°23' W 004°30'0 0.0
2017-Sep-15 07:59N 48°23' W 004°30'1 1.8
2017-Sep-15 07:28N 48°22' W 004°31'0 0.0
2017-Sep-15 06:58N 48°22' W 004°31'0 0.0
2017-Sep-15 06:30N 48°22' W 004°31'4 9.2
2017-Sep-15 06:01N 48°18' W 004°31'510.0
2017-Sep-15 05:30N 48°23' W 004°30'0 0.5
2017-Sep-15 04:58N 48°23' W 004°30'0 0.0
2017-Sep-14 15:04N 48°23' W 004°30'0 0.1
2017-Sep-14 15:00N 48°23' W 004°30'510.4
2017-Sep-14 14:30N 48°18' W 004°31'4 8.3
2017-Sep-14 14:00N 48°22' W 004°29'1 0.5
2017-Sep-14 11:49N 48°23' W 004°30'2 6.1
2017-Sep-14 11:30N 48°21' W 004°29'3 6.7
2017-Sep-14 11:00N 48°18' W 004°27'3 5.1
2017-Sep-14 10:31N 48°20' W 004°28'3 0.7
2017-Sep-14 06:21N 48°23' W 004°30'410.9
2017-Sep-14 06:01N 48°19' W 004°29'1 1.8
2017-Sep-14 05:30N 48°20' W 004°29'3 5.2
2017-Sep-14 04:58N 48°23' W 004°30'0 0.0
2017-Sep-13 15:04N 48°23' W 004°30'0 0.2
2017-Sep-13 14:59N 48°23' W 004°30'510.8
2017-Sep-13 14:30N 48°18' W 004°31'4 8.8
2017-Sep-13 14:00N 48°22' W 004°29'1 0.4
2017-Sep-13 11:43N 48°23' W 004°30'2 8.2
2017-Sep-13 11:31N 48°21' W 004°29'4 7.0
2017-Sep-13 11:00N 48°18' W 004°27'2 4.3
2017-Sep-13 10:30N 48°20' W 004°28'3 5.8
2017-Sep-13 09:58N 48°23' W 004°30'0 0.0
2017-Sep-13 07:14N 48°23' W 004°30'0 0.7
2017-Sep-13 07:01N 48°23' W 004°30'0 0.0
2017-Sep-13 06:30N 48°23' W 004°30'3 6.3
2017-Sep-13 06:01N 48°20' W 004°29'0 0.1
2017-Sep-13 05:31N 48°20' W 004°29'3 5.9
2017-Sep-13 04:58N 48°23' W 004°30'0 0.0
2017-Sep-12 15:04N 48°23' W 004°30'0 0.2
2017-Sep-12 15:00N 48°23' W 004°30'510.6
2017-Sep-12 14:30N 48°18' W 004°31'4 9.0
2017-Sep-12 14:00N 48°22' W 004°29'1 0.4
2017-Sep-12 11:44N 48°23' W 004°30'2 7.9
2017-Sep-12 11:30N 48°21' W 004°29'3 7.0
2017-Sep-12 11:01N 48°18' W 004°27'2 3.8
2017-Sep-12 10:31N 48°20' W 004°28'3 6.3
2017-Sep-12 09:58N 48°23' W 004°30'0 0.0
2017-Sep-12 06:33N 48°23' W 004°30'0 0.1
2017-Sep-12 06:30N 48°23' W 004°30'3 6.9
2017-Sep-12 06:01N 48°20' W 004°29'0 0.9
2017-Sep-12 05:30N 48°20' W 004°29'3 5.4
2017-Sep-12 04:58N 48°23' W 004°30'0 0.0
2017-Sep-11 15:04N 48°23' W 004°30'0 0.4
2017-Sep-11 15:00N 48°23' W 004°30'5 9.7
2017-Sep-11 14:28N 48°18' W 004°31'4 8.7
2017-Sep-11 14:00N 48°22' W 004°29'1 0.6
2017-Sep-11 11:43N 48°23' W 004°30'2 7.6
2017-Sep-11 11:30N 48°21' W 004°29'4 7.2
2017-Sep-11 11:00N 48°18' W 004°27'2 4.0
2017-Sep-11 10:30N 48°20' W 004°28'3 6.3
2017-Sep-11 10:00N 48°23' W 004°30'0 0.0
2017-Sep-11 06:18N 48°23' W 004°30'311.2
2017-Sep-11 06:00N 48°20' W 004°29'0 0.7
2017-Sep-11 05:30N 48°20' W 004°29'3 5.7
2017-Sep-11 04:58N 48°23' W 004°30'  
2017-Sep-08 15:05N 48°23' W 004°30'0 0.1
2017-Sep-08 15:00N 48°23' W 004°30'5 9.6
2017-Sep-08 14:28N 48°18' W 004°31'4 8.5
2017-Sep-08 14:01N 48°22' W 004°29'1 0.7
2017-Sep-08 11:46N 48°23' W 004°30'2 9.3
2017-Sep-08 11:30N 48°20' W 004°29'3 6.3
2017-Sep-08 11:00N 48°18' W 004°26'2 4.1
2017-Sep-08 10:30N 48°20' W 004°28'4 0.8
2017-Sep-08 06:18N 48°23' W 004°30'310.8
2017-Sep-08 06:01N 48°20' W 004°29'0 0.1
2017-Sep-08 05:30N 48°20' W 004°29'3 6.2
2017-Sep-08 05:00N 48°23' W 004°30'0 0.0
2017-Sep-07 15:23N 48°23' W 004°30'512.3
2017-Sep-07 15:00N 48°19' W 004°27'0 0.2
2017-Sep-07 14:30N 48°19' W 004°27'5 0.6
2017-Sep-07 06:29N 48°23' W 004°30'612.2
2017-Sep-07 06:00N 48°18' W 004°25'3 6.0
2017-Sep-07 05:30N 48°20' W 004°28'3 0.2
2017-Sep-06 15:24N 48°23' W 004°30'511.4
2017-Sep-06 15:00N 48°19' W 004°27'0 0.1
2017-Sep-06 14:30N 48°19' W 004°27'  

Dump ship's entire track history